Terminal Aerodrome Forecast
Issued by NWS Amarillo, TX

Current Version | Previous Version | Text Only | Print | Product List | Glossary On
Versions: 1 2 3 4 5 6 7 8 9 10 11 12 13 14 15 16
526
FTUS44 KAMA 141120
TAFGUY
TAF
KGUY 141120Z 1412/1512 35014KT P6SM BKN200
     FM141400 02010KT P6SM BKN200
     FM142000 18008KT P6SM BKN200=

USA.gov is the U.S. government's official web portal to all federal, state and local government web resources and services.